Palmdale, CA (93551)

3:42 PM PDT on August 30, 2015 (GMT -0700)
Country Club Ridge | | Change Station
CLOSE
Current Station
Personal Weather Station
Location: Palmdale, CA
Elevation: 2736 ft
Nearby Weather Stations

Elev 2736 ft 34.61 °N, 118.20 °W | Updated 13 seconds ago

Clear
Clear
95.7 °F
Feels Like 93 °F
N
3.1
Wind Variable Wind from West
Gusts 16.8 mph

Today
High -- | Low -- °F
--% Chance of Precip.
Yesterday
High -- | Low -- °F
Precip. -- in
6:24 AM 7:22 PM
Full, 98% visible
Pressure 29.83 in
Visibility 10.0 miles
Clouds Clear
Heat Index 93 °F
Dew Point 53 °F
Humidity 24%
Rainfall 0.00 in
Snow Depth Not available.
UV 8 out of 12
Pollen 6.00 out of 12
Air Quality Not available.
Flu Activity Not available.
METAR KPMD 302153Z AUTO 25014G21KT 10SM CLR 34/10 A2993 RMK AO2 PK WND 26026/2101 SLP100 T03390100
Pressure 29.83 in
Visibility 10.0 miles
Clouds Clear
Heat Index 93 °F
Dew Point 53 °F
Humidity 24%
Rainfall 0.00 in
Snow Depth Not available.
UV 8 out of 12
Pollen 6.00 out of 12
Air Quality Not available.
Flu Activity Not available.
METAR KPMD 302153Z AUTO 25014G21KT 10SM CLR 34/10 A2993 RMK AO2 PK WND 26026/2101 SLP100 T03390100

10-Day Weather Forecast

×

Almanac

Astronomy

Aug. 30, 2015 Rise Set
Actual Time
Civil Twilight
Nautical Twilight
Astronomical Twilight
Moon
Length of Visible Light
Length of Day
Tomorrow will be .
, % of the Moon is Illuminated

Today's Extremes

State Highs State Lows

Community

WunderPhotos

Upload Photos

1,851,075 photos uploaded!

WunderBlogs® & News

Nearby

Air Quality

  Air Quality AQ Index Pollutant
Not available.

Snow Depth

Station Depth Elevation

Earthquake Activity

City Distance Mag. Time & Date
Minimum magnitude displayed is 2.5.

Coastal Water Temperatures

Place Temperature

Stations

Nearby Weather Stations

Station Location Temp. Windchill Dew Point Humidity Wind Precip. Elev Updated Type